sensor_id;sensor_type;location;lat;lon;timestamp;temperature;humidity
28839;DHT22;15971;50.772;6.100;2022-08-03T00:01:35;21.60;99.80
28839;DHT22;15971;50.772;6.100;2022-08-03T00:04:02;21.60;99.80
28839;DHT22;15971;50.772;6.100;2022-08-03T00:06:27;21.60;99.90
28839;DHT22;15971;50.772;6.100;2022-08-03T00:08:53;21.60;99.90
28839;DHT22;15971;50.772;6.100;2022-08-03T00:11:19;21.60;99.90
28839;DHT22;15971;50.772;6.100;2022-08-03T00:13:45;21.60;99.90
28839;DHT22;15971;50.772;6.100;2022-08-03T00:16:10;21.60;99.80
28839;DHT22;15971;50.772;6.100;2022-08-03T00:18:37;21.60;99.90
28839;DHT22;15971;50.772;6.100;2022-08-03T00:21:03;21.60;99.80
28839;DHT22;15971;50.772;6.100;2022-08-03T00:23:29;21.40;99.90
28839;DHT22;15971;50.772;6.100;2022-08-03T00:25:55;21.50;99.90
28839;DHT22;15971;50.772;6.100;2022-08-03T00:28:21;21.50;99.90
28839;DHT22;15971;50.772;6.100;2022-08-03T00:30:47;21.40;99.90
28839;DHT22;15971;50.772;6.100;2022-08-03T00:33:12;21.40;99.90
28839;DHT22;15971;50.772;6.100;2022-08-03T00:35:38;21.30;99.90
28839;DHT22;15971;50.772;6.100;2022-08-03T00:38:04;21.30;99.90
28839;DHT22;15971;50.772;6.100;2022-08-03T00:40:29;21.20;99.90
28839;DHT22;15971;50.772;6.100;2022-08-03T00:42:57;21.20;99.90
28839;DHT22;15971;50.772;6.100;2022-08-03T00:45:26;21.20;99.90
28839;DHT22;15971;50.772;6.100;2022-08-03T00:47:52;21.30;99.90
28839;DHT22;15971;50.772;6.100;2022-08-03T00:50:19;21.30;99.90
28839;DHT22;15971;50.772;6.100;2022-08-03T00:52:47;21.30;99.90
28839;DHT22;15971;50.772;6.100;2022-08-03T00:55:14;21.30;99.90
28839;DHT22;15971;50.772;6.100;2022-08-03T00:57:41;21.30;99.90
28839;DHT22;15971;50.772;6.100;2022-08-03T01:00:08;21.20;99.90
28839;DHT22;15971;50.772;6.100;2022-08-03T01:02:34;21.10;99.90
28839;DHT22;15971;50.772;6.100;2022-08-03T01:05:00;21.10;99.90
28839;DHT22;15971;50.772;6.100;2022-08-03T01:07:41;21.10;99.90
28839;DHT22;15971;50.772;6.100;2022-08-03T01:10:41;21.20;99.90
28839;DHT22;15971;50.772;6.100;2022-08-03T01:13:47;21.20;99.90
28839;DHT22;15971;50.772;6.100;2022-08-03T01:16:26;21.20;99.90
28839;DHT22;15971;50.772;6.100;2022-08-03T01:24:43;21.20;99.90
28839;DHT22;15971;50.772;6.100;2022-08-03T01:27:20;21.10;99.90
28839;DHT22;15971;50.772;6.100;2022-08-03T01:32:50;21.00;99.90
28839;DHT22;15971;50.772;6.100;2022-08-03T01:38:02;21.10;99.90
28839;DHT22;15971;50.772;6.100;2022-08-03T01:40:28;21.10;99.90
28839;DHT22;15971;50.772;6.100;2022-08-03T01:42:58;21.20;99.90
28839;DHT22;15971;50.772;6.100;2022-08-03T01:45:26;21.20;99.90
28839;DHT22;15971;50.772;6.100;2022-08-03T01:47:53;21.20;99.90
28839;DHT22;15971;50.772;6.100;2022-08-03T01:50:25;21.20;99.90
28839;DHT22;15971;50.772;6.100;2022-08-03T01:52:53;21.20;99.90
28839;DHT22;15971;50.772;6.100;2022-08-03T01:55:21;21.10;99.90
28839;DHT22;15971;50.772;6.100;2022-08-03T01:57:48;21.10;99.90
28839;DHT22;15971;50.772;6.100;2022-08-03T02:00:16;21.10;99.90
28839;DHT22;15971;50.772;6.100;2022-08-03T02:02:42;21.00;99.90
28839;DHT22;15971;50.772;6.100;2022-08-03T02:05:10;21.10;99.90
28839;DHT22;15971;50.772;6.100;2022-08-03T02:07:37;21.00;99.90
28839;DHT22;15971;50.772;6.100;2022-08-03T02:10:05;21.00;99.90
28839;DHT22;15971;50.772;6.100;2022-08-03T02:12:33;20.80;99.90
28839;DHT22;15971;50.772;6.100;2022-08-03T02:15:00;20.80;99.90
28839;DHT22;15971;50.772;6.100;2022-08-03T02:17:27;20.80;99.90
28839;DHT22;15971;50.772;6.100;2022-08-03T02:19:55;20.80;99.90
28839;DHT22;15971;50.772;6.100;2022-08-03T02:22:23;20.80;99.90
28839;DHT22;15971;50.772;6.100;2022-08-03T02:24:49;20.70;99.90
28839;DHT22;15971;50.772;6.100;2022-08-03T02:27:20;20.60;99.90
28839;DHT22;15971;50.772;6.100;2022-08-03T02:29:51;20.50;99.90
28839;DHT22;15971;50.772;6.100;2022-08-03T02:32:20;20.60;99.90
28839;DHT22;15971;50.772;6.100;2022-08-03T02:34:50;20.60;99.90
28839;DHT22;15971;50.772;6.100;2022-08-03T02:37:18;20.60;99.90
28839;DHT22;15971;50.772;6.100;2022-08-03T02:39:45;20.60;99.90
28839;DHT22;15971;50.772;6.100;2022-08-03T02:42:13;20.60;99.90
28839;DHT22;15971;50.772;6.100;2022-08-03T02:44:40;20.60;99.90
28839;DHT22;15971;50.772;6.100;2022-08-03T02:47:12;20.60;99.90
28839;DHT22;15971;50.772;6.100;2022-08-03T02:49:40;20.50;99.90
28839;DHT22;15971;50.772;6.100;2022-08-03T02:52:09;20.60;99.90
28839;DHT22;15971;50.772;6.100;2022-08-03T02:54:35;20.70;99.90
28839;DHT22;15971;50.772;6.100;2022-08-03T02:57:03;20.60;99.90
28839;DHT22;15971;50.772;6.100;2022-08-03T02:59:31;20.60;99.90
28839;DHT22;15971;50.772;6.100;2022-08-03T03:01:58;20.60;99.90
28839;DHT22;15971;50.772;6.100;2022-08-03T03:04:25;20.60;99.90
28839;DHT22;15971;50.772;6.100;2022-08-03T03:06:52;20.50;99.90
28839;DHT22;15971;50.772;6.100;2022-08-03T03:09:18;20.60;99.90
28839;DHT22;15971;50.772;6.100;2022-08-03T03:11:45;20.50;99.90
28839;DHT22;15971;50.772;6.100;2022-08-03T03:14:11;20.50;99.90
28839;DHT22;15971;50.772;6.100;2022-08-03T03:16:39;20.50;99.90
28839;DHT22;15971;50.772;6.100;2022-08-03T03:19:05;20.40;99.90
28839;DHT22;15971;50.772;6.100;2022-08-03T03:21:33;20.40;99.90
28839;DHT22;15971;50.772;6.100;2022-08-03T03:24:00;20.40;99.90
28839;DHT22;15971;50.772;6.100;2022-08-03T03:26:26;20.40;99.90
28839;DHT22;15971;50.772;6.100;2022-08-03T03:28:52;20.20;99.90
28839;DHT22;15971;50.772;6.100;2022-08-03T03:31:18;20.10;99.90
28839;DHT22;15971;50.772;6.100;2022-08-03T03:33:44;20.20;99.90
28839;DHT22;15971;50.772;6.100;2022-08-03T03:36:10;20.30;99.90
28839;DHT22;15971;50.772;6.100;2022-08-03T03:38:36;20.40;99.90
28839;DHT22;15971;50.772;6.100;2022-08-03T03:41:02;20.30;99.90
28839;DHT22;15971;50.772;6.100;2022-08-03T03:43:28;20.20;99.90
28839;DHT22;15971;50.772;6.100;2022-08-03T03:45:56;20.30;99.90
28839;DHT22;15971;50.772;6.100;2022-08-03T03:48:23;20.30;99.90
28839;DHT22;15971;50.772;6.100;2022-08-03T03:50:49;20.40;99.90
28839;DHT22;15971;50.772;6.100;2022-08-03T03:53:15;20.40;99.90
28839;DHT22;15971;50.772;6.100;2022-08-03T03:55:41;20.40;99.90
28839;DHT22;15971;50.772;6.100;2022-08-03T03:58:06;20.40;99.90
28839;DHT22;15971;50.772;6.100;2022-08-03T04:00:33;20.40;99.90
28839;DHT22;15971;50.772;6.100;2022-08-03T04:02:59;20.40;99.90
28839;DHT22;15971;50.772;6.100;2022-08-03T04:05:24;20.40;99.90
28839;DHT22;15971;50.772;6.100;2022-08-03T04:08:15;20.40;99.90
28839;DHT22;15971;50.772;6.100;2022-08-03T04:11:08;20.40;99.90
28839;DHT22;15971;50.772;6.100;2022-08-03T04:13:55;20.40;99.90
28839;DHT22;15971;50.772;6.100;2022-08-03T04:16:24;20.50;99.90
28839;DHT22;15971;50.772;6.100;2022-08-03T04:18:54;20.50;99.90
28839;DHT22;15971;50.772;6.100;2022-08-03T04:21:22;20.50;99.90
28839;DHT22;15971;50.772;6.100;2022-08-03T04:23:52;20.40;99.90
28839;DHT22;15971;50.772;6.100;2022-08-03T04:26:21;20.40;99.90
28839;DHT22;15971;50.772;6.100;2022-08-03T04:28:48;20.50;99.90
28839;DHT22;15971;50.772;6.100;2022-08-03T04:31:17;20.50;99.90
28839;DHT22;15971;50.772;6.100;2022-08-03T04:33:45;20.60;99.90
28839;DHT22;15971;50.772;6.100;2022-08-03T04:36:15;20.60;99.90
28839;DHT22;15971;50.772;6.100;2022-08-03T04:39:23;20.60;99.90
28839;DHT22;15971;50.772;6.100;2022-08-03T04:41:42;20.70;99.90
28839;DHT22;15971;50.772;6.100;2022-08-03T04:44:10;20.60;99.90
28839;DHT22;15971;50.772;6.100;2022-08-03T04:46:38;20.70;99.90
28839;DHT22;15971;50.772;6.100;2022-08-03T04:49:05;20.60;99.90
28839;DHT22;15971;50.772;6.100;2022-08-03T04:51:31;20.70;99.90
28839;DHT22;15971;50.772;6.100;2022-08-03T04:53:59;20.70;99.90
28839;DHT22;15971;50.772;6.100;2022-08-03T04:56:25;20.70;99.90
28839;DHT22;15971;50.772;6.100;2022-08-03T04:58:51;20.90;99.90
28839;DHT22;15971;50.772;6.100;2022-08-03T05:01:17;21.10;99.90
28839;DHT22;15971;50.772;6.100;2022-08-03T05:03:45;21.30;99.90
28839;DHT22;15971;50.772;6.100;2022-08-03T05:06:10;21.60;99.90
28839;DHT22;15971;50.772;6.100;2022-08-03T05:08:36;21.70;99.90
28839;DHT22;15971;50.772;6.100;2022-08-03T05:11:02;21.80;99.90
28839;DHT22;15971;50.772;6.100;2022-08-03T05:13:28;21.80;99.90
28839;DHT22;15971;50.772;6.100;2022-08-03T05:15:53;21.90;99.90
28839;DHT22;15971;50.772;6.100;2022-08-03T05:18:19;21.80;99.90
28839;DHT22;15971;50.772;6.100;2022-08-03T05:20:45;21.80;99.90
28839;DHT22;15971;50.772;6.100;2022-08-03T05:23:10;21.90;99.90
28839;DHT22;15971;50.772;6.100;2022-08-03T05:25:36;21.90;99.90
28839;DHT22;15971;50.772;6.100;2022-08-03T05:28:02;22.00;99.90
28839;DHT22;15971;50.772;6.100;2022-08-03T05:30:27;21.90;99.90
28839;DHT22;15971;50.772;6.100;2022-08-03T05:32:53;21.90;99.90
28839;DHT22;15971;50.772;6.100;2022-08-03T05:35:19;22.00;99.90
28839;DHT22;15971;50.772;6.100;2022-08-03T05:37:44;22.00;99.90
28839;DHT22;15971;50.772;6.100;2022-08-03T05:40:10;22.00;99.90
28839;DHT22;15971;50.772;6.100;2022-08-03T05:42:36;22.00;99.90
28839;DHT22;15971;50.772;6.100;2022-08-03T05:45:05;22.10;99.90
28839;DHT22;15971;50.772;6.100;2022-08-03T05:47:43;22.10;99.90
28839;DHT22;15971;50.772;6.100;2022-08-03T05:50:13;22.10;99.90
28839;DHT22;15971;50.772;6.100;2022-08-03T05:52:39;22.20;99.90
28839;DHT22;15971;50.772;6.100;2022-08-03T05:55:06;22.30;99.90
28839;DHT22;15971;50.772;6.100;2022-08-03T05:57:32;22.30;99.90
28839;DHT22;15971;50.772;6.100;2022-08-03T05:59:58;22.30;99.90
28839;DHT22;15971;50.772;6.100;2022-08-03T06:02:25;22.40;99.90
28839;DHT22;15971;50.772;6.100;2022-08-03T06:04:50;22.50;99.90
28839;DHT22;15971;50.772;6.100;2022-08-03T06:07:16;22.60;99.90
28839;DHT22;15971;50.772;6.100;2022-08-03T06:09:43;22.60;99.90
28839;DHT22;15971;50.772;6.100;2022-08-03T06:12:08;22.70;99.90
28839;DHT22;15971;50.772;6.100;2022-08-03T06:14:34;22.80;99.90
28839;DHT22;15971;50.772;6.100;2022-08-03T06:16:59;22.90;99.90
28839;DHT22;15971;50.772;6.100;2022-08-03T06:19:25;22.90;99.90
28839;DHT22;15971;50.772;6.100;2022-08-03T06:21:51;23.00;99.90
28839;DHT22;15971;50.772;6.100;2022-08-03T06:24:17;23.10;99.90
28839;DHT22;15971;50.772;6.100;2022-08-03T06:26:43;23.20;99.90
28839;DHT22;15971;50.772;6.100;2022-08-03T06:29:08;23.30;99.90
28839;DHT22;15971;50.772;6.100;2022-08-03T06:31:35;23.30;99.90
28839;DHT22;15971;50.772;6.100;2022-08-03T06:34:04;23.50;99.90
28839;DHT22;15971;50.772;6.100;2022-08-03T06:36:30;23.60;99.90
28839;DHT22;15971;50.772;6.100;2022-08-03T06:38:59;23.70;99.70
28839;DHT22;15971;50.772;6.100;2022-08-03T06:41:26;23.80;99.60
28839;DHT22;15971;50.772;6.100;2022-08-03T06:43:52;23.90;99.20
28839;DHT22;15971;50.772;6.100;2022-08-03T06:46:18;24.10;98.70
28839;DHT22;15971;50.772;6.100;2022-08-03T06:48:44;24.30;98.00
28839;DHT22;15971;50.772;6.100;2022-08-03T06:51:10;24.50;97.70
28839;DHT22;15971;50.772;6.100;2022-08-03T06:53:36;24.70;96.90
28839;DHT22;15971;50.772;6.100;2022-08-03T06:56:03;24.70;96.80
28839;DHT22;15971;50.772;6.100;2022-08-03T06:58:29;24.80;96.30
28839;DHT22;15971;50.772;6.100;2022-08-03T07:00:54;24.80;96.30
28839;DHT22;15971;50.772;6.100;2022-08-03T07:03:20;24.90;96.10
28839;DHT22;15971;50.772;6.100;2022-08-03T07:05:46;25.00;96.30
28839;DHT22;15971;50.772;6.100;2022-08-03T07:08:12;25.30;96.20
28839;DHT22;15971;50.772;6.100;2022-08-03T07:10:38;25.60;95.80
28839;DHT22;15971;50.772;6.100;2022-08-03T07:13:04;25.80;95.60
28839;DHT22;15971;50.772;6.100;2022-08-03T07:15:30;25.90;95.20
28839;DHT22;15971;50.772;6.100;2022-08-03T07:17:56;26.10;94.90
28839;DHT22;15971;50.772;6.100;2022-08-03T07:20:22;26.10;94.50
28839;DHT22;15971;50.772;6.100;2022-08-03T07:22:47;26.20;94.30
28839;DHT22;15971;50.772;6.100;2022-08-03T07:25:13;26.20;93.90
28839;DHT22;15971;50.772;6.100;2022-08-03T07:27:43;26.30;94.10
28839;DHT22;15971;50.772;6.100;2022-08-03T07:30:08;26.20;94.40
28839;DHT22;15971;50.772;6.100;2022-08-03T07:32:34;26.20;93.90
28839;DHT22;15971;50.772;6.100;2022-08-03T07:35:00;26.20;93.80
28839;DHT22;15971;50.772;6.100;2022-08-03T07:37:27;26.20;93.80
28839;DHT22;15971;50.772;6.100;2022-08-03T07:39:52;26.20;93.60
28839;DHT22;15971;50.772;6.100;2022-08-03T07:42:18;26.20;93.30
28839;DHT22;15971;50.772;6.100;2022-08-03T07:44:43;26.20;93.40
28839;DHT22;15971;50.772;6.100;2022-08-03T07:47:09;26.20;92.90
28839;DHT22;15971;50.772;6.100;2022-08-03T07:49:39;26.30;93.10
28839;DHT22;15971;50.772;6.100;2022-08-03T07:52:05;26.30;93.00
28839;DHT22;15971;50.772;6.100;2022-08-03T07:54:56;26.40;92.80
28839;DHT22;15971;50.772;6.100;2022-08-03T07:57:22;26.40;92.50
28839;DHT22;15971;50.772;6.100;2022-08-03T07:59:48;26.50;92.40
28839;DHT22;15971;50.772;6.100;2022-08-03T08:02:13;26.50;92.00
28839;DHT22;15971;50.772;6.100;2022-08-03T08:04:39;26.50;92.30
28839;DHT22;15971;50.772;6.100;2022-08-03T08:07:05;26.50;92.20
28839;DHT22;15971;50.772;6.100;2022-08-03T08:09:30;26.70;92.10
28839;DHT22;15971;50.772;6.100;2022-08-03T08:11:56;26.80;91.70
28839;DHT22;15971;50.772;6.100;2022-08-03T08:14:22;26.80;91.60
28839;DHT22;15971;50.772;6.100;2022-08-03T08:16:47;26.80;91.60
28839;DHT22;15971;50.772;6.100;2022-08-03T08:19:14;26.90;91.30
28839;DHT22;15971;50.772;6.100;2022-08-03T08:21:41;27.00;91.30
28839;DHT22;15971;50.772;6.100;2022-08-03T08:24:07;27.00;90.90
28839;DHT22;15971;50.772;6.100;2022-08-03T08:26:32;27.00;91.30
28839;DHT22;15971;50.772;6.100;2022-08-03T08:28:58;27.20;91.40
28839;DHT22;15971;50.772;6.100;2022-08-03T08:31:23;27.10;91.10
28839;DHT22;15971;50.772;6.100;2022-08-03T08:33:49;27.10;91.40
28839;DHT22;15971;50.772;6.100;2022-08-03T08:36:15;27.20;90.70
28839;DHT22;15971;50.772;6.100;2022-08-03T08:38:42;27.20;90.90
28839;DHT22;15971;50.772;6.100;2022-08-03T08:41:09;27.30;90.90
28839;DHT22;15971;50.772;6.100;2022-08-03T08:43:35;27.40;90.70
28839;DHT22;15971;50.772;6.100;2022-08-03T08:46:01;27.40;90.60
28839;DHT22;15971;50.772;6.100;2022-08-03T08:48:29;27.40;90.00
28839;DHT22;15971;50.772;6.100;2022-08-03T08:50:55;27.50;90.20
28839;DHT22;15971;50.772;6.100;2022-08-03T08:53:25;27.60;89.60
28839;DHT22;15971;50.772;6.100;2022-08-03T08:55:54;27.70;89.60
28839;DHT22;15971;50.772;6.100;2022-08-03T08:58:23;27.70;89.00
28839;DHT22;15971;50.772;6.100;2022-08-03T09:00:49;27.70;89.30
28839;DHT22;15971;50.772;6.100;2022-08-03T09:03:15;27.80;89.00
28839;DHT22;15971;50.772;6.100;2022-08-03T09:05:42;27.90;89.30
28839;DHT22;15971;50.772;6.100;2022-08-03T09:08:09;27.90;89.00
28839;DHT22;15971;50.772;6.100;2022-08-03T09:10:34;27.90;88.40
28839;DHT22;15971;50.772;6.100;2022-08-03T09:13:00;28.00;88.10
28839;DHT22;15971;50.772;6.100;2022-08-03T09:15:28;28.00;87.80
28839;DHT22;15971;50.772;6.100;2022-08-03T09:18:02;28.10;87.90
28839;DHT22;15971;50.772;6.100;2022-08-03T09:20:31;28.10;87.30
28839;DHT22;15971;50.772;6.100;2022-08-03T09:23:05;28.20;87.20
28839;DHT22;15971;50.772;6.100;2022-08-03T09:25:35;28.20;87.70
28839;DHT22;15971;50.772;6.100;2022-08-03T09:28:09;28.30;86.70
28839;DHT22;15971;50.772;6.100;2022-08-03T09:30:37;28.30;86.10
28839;DHT22;15971;50.772;6.100;2022-08-03T09:33:05;28.30;86.60
28839;DHT22;15971;50.772;6.100;2022-08-03T09:35:32;28.40;86.30
28839;DHT22;15971;50.772;6.100;2022-08-03T09:40:37;28.40;85.90
28839;DHT22;15971;50.772;6.100;2022-08-03T09:43:03;28.50;86.30
28839;DHT22;15971;50.772;6.100;2022-08-03T09:45:35;28.50;85.50
28839;DHT22;15971;50.772;6.100;2022-08-03T09:48:22;28.60;85.50
28839;DHT22;15971;50.772;6.100;2022-08-03T09:50:54;28.60;85.20
28839;DHT22;15971;50.772;6.100;2022-08-03T09:53:21;28.60;85.20
28839;DHT22;15971;50.772;6.100;2022-08-03T09:55:54;28.60;84.80
28839;DHT22;15971;50.772;6.100;2022-08-03T09:58:25;28.60;84.50
28839;DHT22;15971;50.772;6.100;2022-08-03T10:03:25;28.70;84.20
28839;DHT22;15971;50.772;6.100;2022-08-03T10:05:52;28.70;84.20
28839;DHT22;15971;50.772;6.100;2022-08-03T10:08:19;28.70;84.60
28839;DHT22;15971;50.772;6.100;2022-08-03T10:10:47;28.70;84.90
28839;DHT22;15971;50.772;6.100;2022-08-03T10:13:17;28.80;84.50
28839;DHT22;15971;50.772;6.100;2022-08-03T10:15:44;28.90;83.60
28839;DHT22;15971;50.772;6.100;2022-08-03T10:18:10;28.90;83.70
28839;DHT22;15971;50.772;6.100;2022-08-03T10:21:03;29.10;82.70
28839;DHT22;15971;50.772;6.100;2022-08-03T10:23:33;29.00;81.90
28839;DHT22;15971;50.772;6.100;2022-08-03T10:26:02;29.10;82.60
28839;DHT22;15971;50.772;6.100;2022-08-03T10:28:34;29.10;82.40
28839;DHT22;15971;50.772;6.100;2022-08-03T10:31:00;29.20;81.60
28839;DHT22;15971;50.772;6.100;2022-08-03T10:33:27;29.20;82.20
28839;DHT22;15971;50.772;6.100;2022-08-03T10:35:56;29.10;80.90
28839;DHT22;15971;50.772;6.100;2022-08-03T10:38:37;29.00;81.10
28839;DHT22;15971;50.772;6.100;2022-08-03T10:41:05;29.10;80.90
28839;DHT22;15971;50.772;6.100;2022-08-03T10:46:22;29.20;81.20
28839;DHT22;15971;50.772;6.100;2022-08-03T10:48:48;29.20;82.80
28839;DHT22;15971;50.772;6.100;2022-08-03T10:51:15;29.30;82.00
28839;DHT22;15971;50.772;6.100;2022-08-03T10:53:42;29.40;81.30
28839;DHT22;15971;50.772;6.100;2022-08-03T10:59:14;29.50;81.70
28839;DHT22;15971;50.772;6.100;2022-08-03T11:01:54;29.30;81.60
28839;DHT22;15971;50.772;6.100;2022-08-03T11:04:21;29.40;81.50
28839;DHT22;15971;50.772;6.100;2022-08-03T11:07:17;29.50;81.50
28839;DHT22;15971;50.772;6.100;2022-08-03T11:09:45;29.60;80.40
28839;DHT22;15971;50.772;6.100;2022-08-03T11:12:32;29.60;79.10
28839;DHT22;15971;50.772;6.100;2022-08-03T11:15:04;29.70;79.10
28839;DHT22;15971;50.772;6.100;2022-08-03T11:17:32;29.60;80.10
28839;DHT22;15971;50.772;6.100;2022-08-03T11:19:58;29.70;80.00
28839;DHT22;15971;50.772;6.100;2022-08-03T11:22:24;29.60;80.10
28839;DHT22;15971;50.772;6.100;2022-08-03T11:27:28;29.60;79.90
28839;DHT22;15971;50.772;6.100;2022-08-03T11:35:15;29.80;78.70
28839;DHT22;15971;50.772;6.100;2022-08-03T11:40:48;29.70;79.20
28839;DHT22;15971;50.772;6.100;2022-08-03T11:46:03;30.00;79.00
28839;DHT22;15971;50.772;6.100;2022-08-03T11:48:33;30.10;77.90
28839;DHT22;15971;50.772;6.100;2022-08-03T11:51:00;30.10;78.00
28839;DHT22;15971;50.772;6.100;2022-08-03T11:53:26;30.10;77.60
28839;DHT22;15971;50.772;6.100;2022-08-03T11:55:52;30.10;77.10
28839;DHT22;15971;50.772;6.100;2022-08-03T11:58:22;30.10;76.60
28839;DHT22;15971;50.772;6.100;2022-08-03T12:00:49;30.20;77.70
28839;DHT22;15971;50.772;6.100;2022-08-03T12:03:17;30.20;77.10
28839;DHT22;15971;50.772;6.100;2022-08-03T12:05:52;30.00;77.10
28839;DHT22;15971;50.772;6.100;2022-08-03T12:08:29;30.00;76.80
28839;DHT22;15971;50.772;6.100;2022-08-03T12:10:56;30.10;77.50
28839;DHT22;15971;50.772;6.100;2022-08-03T12:13:22;30.20;77.70
28839;DHT22;15971;50.772;6.100;2022-08-03T12:15:54;30.10;77.80
28839;DHT22;15971;50.772;6.100;2022-08-03T12:18:21;30.10;76.70
28839;DHT22;15971;50.772;6.100;2022-08-03T12:20:49;30.30;76.70
28839;DHT22;15971;50.772;6.100;2022-08-03T12:23:15;30.20;76.30
28839;DHT22;15971;50.772;6.100;2022-08-03T12:25:42;30.00;77.30
28839;DHT22;15971;50.772;6.100;2022-08-03T12:30:38;30.00;78.10
28839;DHT22;15971;50.772;6.100;2022-08-03T12:33:24;30.10;78.20
28839;DHT22;15971;50.772;6.100;2022-08-03T12:36:03;30.20;78.30
28839;DHT22;15971;50.772;6.100;2022-08-03T12:38:30;30.30;78.00
28839;DHT22;15971;50.772;6.100;2022-08-03T12:41:05;30.30;78.50
28839;DHT22;15971;50.772;6.100;2022-08-03T12:43:33;30.30;79.20
28839;DHT22;15971;50.772;6.100;2022-08-03T12:46:09;30.40;78.10
28839;DHT22;15971;50.772;6.100;2022-08-03T12:48:35;30.60;77.40
28839;DHT22;15971;50.772;6.100;2022-08-03T12:51:10;30.60;77.30
28839;DHT22;15971;50.772;6.100;2022-08-03T12:53:36;30.60;76.70
28839;DHT22;15971;50.772;6.100;2022-08-03T12:56:05;30.60;76.70
28839;DHT22;15971;50.772;6.100;2022-08-03T12:58:33;30.60;76.60
28839;DHT22;15971;50.772;6.100;2022-08-03T13:01:00;30.60;76.00
28839;DHT22;15971;50.772;6.100;2022-08-03T13:03:26;30.60;76.20
28839;DHT22;15971;50.772;6.100;2022-08-03T13:05:51;30.60;76.50
28839;DHT22;15971;50.772;6.100;2022-08-03T13:08:21;30.60;76.20
28839;DHT22;15971;50.772;6.100;2022-08-03T13:10:47;30.60;75.50
28839;DHT22;15971;50.772;6.100;2022-08-03T13:13:13;30.60;75.90
28839;DHT22;15971;50.772;6.100;2022-08-03T13:15:39;30.70;75.70
28839;DHT22;15971;50.772;6.100;2022-08-03T13:18:05;30.80;76.30
28839;DHT22;15971;50.772;6.100;2022-08-03T13:20:32;30.80;76.70
28839;DHT22;15971;50.772;6.100;2022-08-03T13:22:58;30.80;77.20
28839;DHT22;15971;50.772;6.100;2022-08-03T13:25:24;30.90;76.60
28839;DHT22;15971;50.772;6.100;2022-08-03T13:27:49;30.80;76.10
28839;DHT22;15971;50.772;6.100;2022-08-03T13:30:16;30.80;75.40
28839;DHT22;15971;50.772;6.100;2022-08-03T13:32:43;30.80;75.00
28839;DHT22;15971;50.772;6.100;2022-08-03T13:35:09;30.80;74.90
28839;DHT22;15971;50.772;6.100;2022-08-03T13:37:35;30.80;74.70
28839;DHT22;15971;50.772;6.100;2022-08-03T13:40:02;30.70;75.10
28839;DHT22;15971;50.772;6.100;2022-08-03T13:42:30;30.70;74.80
28839;DHT22;15971;50.772;6.100;2022-08-03T13:44:56;30.70;75.20
28839;DHT22;15971;50.772;6.100;2022-08-03T13:47:21;30.60;76.00
28839;DHT22;15971;50.772;6.100;2022-08-03T13:49:47;30.50;76.20
28839;DHT22;15971;50.772;6.100;2022-08-03T13:52:15;30.50;76.20
28839;DHT22;15971;50.772;6.100;2022-08-03T13:54:40;30.70;76.50
28839;DHT22;15971;50.772;6.100;2022-08-03T13:57:06;30.70;75.70
28839;DHT22;15971;50.772;6.100;2022-08-03T13:59:31;30.70;76.00
28839;DHT22;15971;50.772;6.100;2022-08-03T14:01:57;30.80;75.70
28839;DHT22;15971;50.772;6.100;2022-08-03T14:04:23;30.70;75.50
28839;DHT22;15971;50.772;6.100;2022-08-03T14:06:48;30.60;75.70
28839;DHT22;15971;50.772;6.100;2022-08-03T14:09:14;30.70;75.60
28839;DHT22;15971;50.772;6.100;2022-08-03T14:11:41;30.70;75.60
28839;DHT22;15971;50.772;6.100;2022-08-03T14:14:07;30.70;75.40
28839;DHT22;15971;50.772;6.100;2022-08-03T14:16:32;30.70;75.70
28839;DHT22;15971;50.772;6.100;2022-08-03T14:18:58;30.70;75.20
28839;DHT22;15971;50.772;6.100;2022-08-03T14:21:24;30.80;75.00
28839;DHT22;15971;50.772;6.100;2022-08-03T14:23:49;30.90;75.50
28839;DHT22;15971;50.772;6.100;2022-08-03T14:26:15;30.90;75.00
28839;DHT22;15971;50.772;6.100;2022-08-03T14:28:43;30.80;75.30
28839;DHT22;15971;50.772;6.100;2022-08-03T14:31:08;30.60;75.70
28839;DHT22;15971;50.772;6.100;2022-08-03T14:33:34;30.50;76.20
28839;DHT22;15971;50.772;6.100;2022-08-03T14:36:00;30.70;75.50
28839;DHT22;15971;50.772;6.100;2022-08-03T14:38:26;30.80;75.70
28839;DHT22;15971;50.772;6.100;2022-08-03T14:40:51;30.90;75.30
28839;DHT22;15971;50.772;6.100;2022-08-03T14:43:17;31.00;75.80
28839;DHT22;15971;50.772;6.100;2022-08-03T14:45:45;31.00;74.40
28839;DHT22;15971;50.772;6.100;2022-08-03T14:48:11;31.00;73.90
28839;DHT22;15971;50.772;6.100;2022-08-03T14:50:37;30.90;73.70
28839;DHT22;15971;50.772;6.100;2022-08-03T14:53:02;30.80;73.60
28839;DHT22;15971;50.772;6.100;2022-08-03T14:55:28;30.80;74.40
28839;DHT22;15971;50.772;6.100;2022-08-03T14:57:54;30.70;73.80
28839;DHT22;15971;50.772;6.100;2022-08-03T15:00:19;30.60;74.30
28839;DHT22;15971;50.772;6.100;2022-08-03T15:02:45;30.70;74.40
28839;DHT22;15971;50.772;6.100;2022-08-03T15:05:11;30.70;75.00
28839;DHT22;15971;50.772;6.100;2022-08-03T15:07:37;30.70;74.60
28839;DHT22;15971;50.772;6.100;2022-08-03T15:10:03;30.70;74.80
28839;DHT22;15971;50.772;6.100;2022-08-03T15:12:29;30.70;74.20
28839;DHT22;15971;50.772;6.100;2022-08-03T15:14:55;30.80;74.80
28839;DHT22;15971;50.772;6.100;2022-08-03T15:17:21;30.70;74.70
28839;DHT22;15971;50.772;6.100;2022-08-03T15:19:46;30.60;73.40
28839;DHT22;15971;50.772;6.100;2022-08-03T15:22:12;30.60;74.80
28839;DHT22;15971;50.772;6.100;2022-08-03T15:24:40;30.60;74.80
28839;DHT22;15971;50.772;6.100;2022-08-03T15:27:06;30.60;74.20
28839;DHT22;15971;50.772;6.100;2022-08-03T15:29:31;30.60;74.60
28839;DHT22;15971;50.772;6.100;2022-08-03T15:31:57;30.70;74.80
28839;DHT22;15971;50.772;6.100;2022-08-03T15:34:22;30.80;73.60
28839;DHT22;15971;50.772;6.100;2022-08-03T15:36:48;30.80;73.40
28839;DHT22;15971;50.772;6.100;2022-08-03T15:39:13;30.70;74.60
28839;DHT22;15971;50.772;6.100;2022-08-03T15:41:39;30.60;74.30
28839;DHT22;15971;50.772;6.100;2022-08-03T15:44:05;30.60;73.60
28839;DHT22;15971;50.772;6.100;2022-08-03T15:46:30;30.50;74.00
28839;DHT22;15971;50.772;6.100;2022-08-03T15:48:56;30.60;73.50
28839;DHT22;15971;50.772;6.100;2022-08-03T15:51:22;30.80;73.10
28839;DHT22;15971;50.772;6.100;2022-08-03T15:53:47;30.80;73.60
28839;DHT22;15971;50.772;6.100;2022-08-03T15:56:13;30.60;73.10
28839;DHT22;15971;50.772;6.100;2022-08-03T15:58:39;30.60;73.80
28839;DHT22;15971;50.772;6.100;2022-08-03T16:01:05;30.70;74.10
28839;DHT22;15971;50.772;6.100;2022-08-03T16:03:31;30.80;73.40
28839;DHT22;15971;50.772;6.100;2022-08-03T16:06:04;30.90;73.70
28839;DHT22;15971;50.772;6.100;2022-08-03T16:08:30;30.80;72.80
28839;DHT22;15971;50.772;6.100;2022-08-03T16:10:57;30.70;73.10
28839;DHT22;15971;50.772;6.100;2022-08-03T16:13:23;30.60;73.30